sensor_id;sensor_type;location;lat;lon;timestamp;P1;durP1;ratioP1;P2;durP2;ratioP2
49650;SDS011;35547;55.676;37.492;2022-09-17T00:00:53;9.33;;;5.20;;
49650;SDS011;35547;55.676;37.492;2022-09-17T00:01:54;13.13;;;6.97;;
49650;SDS011;35547;55.676;37.492;2022-09-17T00:02:54;7.77;;;5.83;;
49650;SDS011;35547;55.676;37.492;2022-09-17T00:03:56;6.13;;;5.53;;
49650;SDS011;35547;55.676;37.492;2022-09-17T00:05:01;9.25;;;5.63;;
49650;SDS011;35547;55.676;37.492;2022-09-17T00:06:04;10.88;;;5.07;;
49650;SDS011;35547;55.676;37.492;2022-09-17T00:07:09;7.25;;;5.28;;
49650;SDS011;35547;55.676;37.492;2022-09-17T00:08:11;13.60;;;5.77;;
49650;SDS011;35547;55.676;37.492;2022-09-17T00:09:15;6.75;;;5.15;;
49650;SDS011;35547;55.676;37.492;2022-09-17T00:10:17;6.87;;;4.70;;
49650;SDS011;35547;55.676;37.492;2022-09-17T00:11:23;9.38;;;5.30;;
49650;SDS011;35547;55.676;37.492;2022-09-17T00:12:26;9.23;;;5.28;;
49650;SDS011;35547;55.676;37.492;2022-09-17T00:13:26;6.53;;;5.23;;
49650;SDS011;35547;55.676;37.492;2022-09-17T00:14:27;5.83;;;5.27;;
49650;SDS011;35547;55.676;37.492;2022-09-17T00:15:27;7.97;;;5.30;;
49650;SDS011;35547;55.676;37.492;2022-09-17T00:16:37;12.23;;;5.20;;
49650;SDS011;35547;55.676;37.492;2022-09-17T00:17:40;7.68;;;5.70;;
49650;SDS011;35547;55.676;37.492;2022-09-17T00:18:41;10.32;;;5.55;;
49650;SDS011;35547;55.676;37.492;2022-09-17T00:19:42;8.57;;;5.30;;
49650;SDS011;35547;55.676;37.492;2022-09-17T00:20:43;9.20;;;5.47;;
49650;SDS011;35547;55.676;37.492;2022-09-17T00:21:45;10.80;;;5.05;;
49650;SDS011;35547;55.676;37.492;2022-09-17T00:22:46;9.00;;;5.38;;
49650;SDS011;35547;55.676;37.492;2022-09-17T00:23:47;8.37;;;5.37;;
49650;SDS011;35547;55.676;37.492;2022-09-17T00:24:48;5.95;;;4.95;;
49650;SDS011;35547;55.676;37.492;2022-09-17T00:25:48;7.80;;;5.80;;
49650;SDS011;35547;55.676;37.492;2022-09-17T00:26:49;7.23;;;5.30;;
49650;SDS011;35547;55.676;37.492;2022-09-17T00:27:49;10.57;;;5.77;;
49650;SDS011;35547;55.676;37.492;2022-09-17T00:28:53;10.00;;;5.43;;
49650;SDS011;35547;55.676;37.492;2022-09-17T00:29:54;7.10;;;5.63;;
49650;SDS011;35547;55.676;37.492;2022-09-17T00:30:55;7.33;;;5.60;;
49650;SDS011;35547;55.676;37.492;2022-09-17T00:31:55;6.77;;;5.20;;
49650;SDS011;35547;55.676;37.492;2022-09-17T00:32:56;7.30;;;5.60;;
49650;SDS011;35547;55.676;37.492;2022-09-17T00:33:57;8.47;;;6.50;;
49650;SDS011;35547;55.676;37.492;2022-09-17T00:34:59;8.82;;;5.32;;
49650;SDS011;35547;55.676;37.492;2022-09-17T00:36:00;8.23;;;5.53;;
49650;SDS011;35547;55.676;37.492;2022-09-17T00:37:01;7.95;;;5.35;;
49650;SDS011;35547;55.676;37.492;2022-09-17T00:38:02;7.83;;;5.50;;
49650;SDS011;35547;55.676;37.492;2022-09-17T00:39:03;9.10;;;5.77;;
49650;SDS011;35547;55.676;37.492;2022-09-17T00:40:05;8.52;;;5.85;;
49650;SDS011;35547;55.676;37.492;2022-09-17T00:41:06;10.13;;;5.53;;
49650;SDS011;35547;55.676;37.492;2022-09-17T00:42:08;8.20;;;5.13;;
49650;SDS011;35547;55.676;37.492;2022-09-17T00:43:11;8.60;;;5.82;;
49650;SDS011;35547;55.676;37.492;2022-09-17T00:45:40;11.43;;;5.82;;
49650;SDS011;35547;55.676;37.492;2022-09-17T00:46:41;9.83;;;5.00;;
49650;SDS011;35547;55.676;37.492;2022-09-17T00:48:04;9.95;;;5.22;;
49650;SDS011;35547;55.676;37.492;2022-09-17T00:49:12;6.78;;;5.15;;
49650;SDS011;35547;55.676;37.492;2022-09-17T00:50:17;8.63;;;5.18;;
49650;SDS011;35547;55.676;37.492;2022-09-17T00:51:24;6.43;;;4.97;;
49650;SDS011;35547;55.676;37.492;2022-09-17T00:52:34;6.85;;;4.40;;
49650;SDS011;35547;55.676;37.492;2022-09-17T00:53:38;7.20;;;5.30;;
49650;SDS011;35547;55.676;37.492;2022-09-17T00:54:39;6.10;;;4.97;;
49650;SDS011;35547;55.676;37.492;2022-09-17T00:55:53;10.75;;;5.00;;
49650;SDS011;35547;55.676;37.492;2022-09-17T00:57:25;5.28;;;4.75;;
49650;SDS011;35547;55.676;37.492;2022-09-17T00:58:25;6.70;;;5.03;;
49650;SDS011;35547;55.676;37.492;2022-09-17T01:00:28;7.68;;;4.45;;
49650;SDS011;35547;55.676;37.492;2022-09-17T01:01:30;9.65;;;4.80;;
49650;SDS011;35547;55.676;37.492;2022-09-17T01:02:31;9.00;;;4.40;;
49650;SDS011;35547;55.676;37.492;2022-09-17T01:03:32;8.40;;;5.00;;
49650;SDS011;35547;55.676;37.492;2022-09-17T01:04:32;9.33;;;4.80;;
49650;SDS011;35547;55.676;37.492;2022-09-17T01:07:53;6.90;;;4.82;;
49650;SDS011;35547;55.676;37.492;2022-09-17T01:09:27;6.07;;;4.50;;
49650;SDS011;35547;55.676;37.492;2022-09-17T01:10:44;5.70;;;4.90;;
49650;SDS011;35547;55.676;37.492;2022-09-17T01:13:14;5.55;;;4.95;;
49650;SDS011;35547;55.676;37.492;2022-09-17T01:18:32;7.60;;;4.57;;
49650;SDS011;35547;55.676;37.492;2022-09-17T01:27:06;6.28;;;4.90;;
49650;SDS011;35547;55.676;37.492;2022-09-17T01:28:55;7.78;;;4.53;;
49650;SDS011;35547;55.676;37.492;2022-09-17T01:33:29;9.87;;;4.60;;
49650;SDS011;35547;55.676;37.492;2022-09-17T01:34:43;5.63;;;4.60;;
49650;SDS011;35547;55.676;37.492;2022-09-17T01:37:10;8.18;;;4.15;;
49650;SDS011;35547;55.676;37.492;2022-09-17T01:38:24;6.22;;;4.78;;
49650;SDS011;35547;55.676;37.492;2022-09-17T01:39:39;5.07;;;4.28;;
49650;SDS011;35547;55.676;37.492;2022-09-17T01:41:01;8.93;;;4.47;;
49650;SDS011;35547;55.676;37.492;2022-09-17T01:42:15;10.30;;;4.38;;
49650;SDS011;35547;55.676;37.492;2022-09-17T01:43:32;5.90;;;4.43;;
49650;SDS011;35547;55.676;37.492;2022-09-17T01:44:49;7.38;;;4.50;;
49650;SDS011;35547;55.676;37.492;2022-09-17T01:46:17;10.00;;;3.95;;
49650;SDS011;35547;55.676;37.492;2022-09-17T01:47:28;6.47;;;4.60;;
49650;SDS011;35547;55.676;37.492;2022-09-17T01:48:31;4.93;;;3.55;;
49650;SDS011;35547;55.676;37.492;2022-09-17T01:49:35;8.07;;;3.95;;
49650;SDS011;35547;55.676;37.492;2022-09-17T01:50:59;5.43;;;3.70;;
49650;SDS011;35547;55.676;37.492;2022-09-17T01:52:04;6.82;;;4.13;;
49650;SDS011;35547;55.676;37.492;2022-09-17T01:53:06;8.15;;;4.10;;
49650;SDS011;35547;55.676;37.492;2022-09-17T01:54:12;7.38;;;4.35;;
49650;SDS011;35547;55.676;37.492;2022-09-17T01:55:39;6.80;;;4.40;;
49650;SDS011;35547;55.676;37.492;2022-09-17T01:56:51;7.28;;;4.28;;
49650;SDS011;35547;55.676;37.492;2022-09-17T01:57:59;7.35;;;4.15;;
49650;SDS011;35547;55.676;37.492;2022-09-17T01:59:21;17.13;;;4.38;;
49650;SDS011;35547;55.676;37.492;2022-09-17T02:00:26;7.28;;;4.05;;
49650;SDS011;35547;55.676;37.492;2022-09-17T02:01:27;6.60;;;3.80;;
49650;SDS011;35547;55.676;37.492;2022-09-17T02:02:35;6.05;;;3.88;;
49650;SDS011;35547;55.676;37.492;2022-09-17T02:03:47;6.07;;;3.58;;
49650;SDS011;35547;55.676;37.492;2022-09-17T02:06:03;8.57;;;3.63;;
49650;SDS011;35547;55.676;37.492;2022-09-17T02:07:08;5.90;;;3.83;;
49650;SDS011;35547;55.676;37.492;2022-09-17T02:09:17;6.17;;;3.80;;
49650;SDS011;35547;55.676;37.492;2022-09-17T02:10:24;5.00;;;3.88;;
49650;SDS011;35547;55.676;37.492;2022-09-17T02:11:28;9.20;;;3.78;;
49650;SDS011;35547;55.676;37.492;2022-09-17T02:12:34;5.95;;;3.45;;
49650;SDS011;35547;55.676;37.492;2022-09-17T02:14:55;3.95;;;3.55;;
49650;SDS011;35547;55.676;37.492;2022-09-17T02:16:01;5.32;;;3.95;;
49650;SDS011;35547;55.676;37.492;2022-09-17T02:17:13;5.00;;;3.80;;
49650;SDS011;35547;55.676;37.492;2022-09-17T02:19:32;5.93;;;3.80;;
49650;SDS011;35547;55.676;37.492;2022-09-17T02:20:42;4.55;;;3.45;;
49650;SDS011;35547;55.676;37.492;2022-09-17T02:23:05;6.22;;;3.72;;
49650;SDS011;35547;55.676;37.492;2022-09-17T02:25:32;4.95;;;3.63;;
49650;SDS011;35547;55.676;37.492;2022-09-17T02:26:38;7.35;;;3.65;;
49650;SDS011;35547;55.676;37.492;2022-09-17T02:27:51;6.03;;;3.70;;
49650;SDS011;35547;55.676;37.492;2022-09-17T02:29:00;5.63;;;3.50;;
49650;SDS011;35547;55.676;37.492;2022-09-17T02:30:07;5.45;;;3.70;;
49650;SDS011;35547;55.676;37.492;2022-09-17T02:31:08;5.93;;;3.65;;
49650;SDS011;35547;55.676;37.492;2022-09-17T02:32:10;4.47;;;3.50;;
49650;SDS011;35547;55.676;37.492;2022-09-17T02:33:12;8.57;;;3.67;;
49650;SDS011;35547;55.676;37.492;2022-09-17T02:34:14;9.35;;;3.50;;
49650;SDS011;35547;55.676;37.492;2022-09-17T02:35:15;8.93;;;3.20;;
49650;SDS011;35547;55.676;37.492;2022-09-17T02:36:16;5.07;;;3.47;;
49650;SDS011;35547;55.676;37.492;2022-09-17T02:38:25;7.45;;;3.35;;
49650;SDS011;35547;55.676;37.492;2022-09-17T02:39:29;5.90;;;3.13;;
49650;SDS011;35547;55.676;37.492;2022-09-17T02:40:30;4.43;;;3.33;;
49650;SDS011;35547;55.676;37.492;2022-09-17T02:41:44;4.35;;;3.40;;
49650;SDS011;35547;55.676;37.492;2022-09-17T02:46:04;5.35;;;3.28;;
49650;SDS011;35547;55.676;37.492;2022-09-17T02:53:55;8.57;;;3.47;;
49650;SDS011;35547;55.676;37.492;2022-09-17T02:55:11;5.70;;;3.50;;
49650;SDS011;35547;55.676;37.492;2022-09-17T02:59:22;11.90;;;3.97;;
49650;SDS011;35547;55.676;37.492;2022-09-17T03:00:28;7.82;;;3.72;;
49650;SDS011;35547;55.676;37.492;2022-09-17T03:01:42;5.93;;;3.30;;
49650;SDS011;35547;55.676;37.492;2022-09-17T03:03:58;4.45;;;3.70;;
49650;SDS011;35547;55.676;37.492;2022-09-17T03:05:02;6.18;;;3.40;;
49650;SDS011;35547;55.676;37.492;2022-09-17T03:07:08;7.53;;;3.53;;
49650;SDS011;35547;55.676;37.492;2022-09-17T03:08:11;7.00;;;3.38;;
49650;SDS011;35547;55.676;37.492;2022-09-17T03:09:13;6.00;;;3.83;;
49650;SDS011;35547;55.676;37.492;2022-09-17T03:10:14;6.65;;;3.45;;
49650;SDS011;35547;55.676;37.492;2022-09-17T03:11:15;6.57;;;3.50;;
49650;SDS011;35547;55.676;37.492;2022-09-17T03:12:16;6.40;;;3.90;;
49650;SDS011;35547;55.676;37.492;2022-09-17T03:13:16;8.53;;;3.73;;
49650;SDS011;35547;55.676;37.492;2022-09-17T03:14:17;9.23;;;3.57;;
49650;SDS011;35547;55.676;37.492;2022-09-17T03:15:19;8.70;;;3.70;;
49650;SDS011;35547;55.676;37.492;2022-09-17T03:16:20;4.20;;;3.30;;
49650;SDS011;35547;55.676;37.492;2022-09-17T03:17:20;5.13;;;3.97;;
49650;SDS011;35547;55.676;37.492;2022-09-17T03:18:21;6.90;;;3.73;;
49650;SDS011;35547;55.676;37.492;2022-09-17T03:19:22;6.72;;;3.25;;
49650;SDS011;35547;55.676;37.492;2022-09-17T03:20:22;4.90;;;3.37;;
49650;SDS011;35547;55.676;37.492;2022-09-17T03:21:23;7.20;;;3.57;;
49650;SDS011;35547;55.676;37.492;2022-09-17T03:22:24;4.87;;;3.70;;
49650;SDS011;35547;55.676;37.492;2022-09-17T03:23:24;8.37;;;3.60;;
49650;SDS011;35547;55.676;37.492;2022-09-17T03:24:27;6.63;;;3.83;;
49650;SDS011;35547;55.676;37.492;2022-09-17T03:25:27;5.50;;;4.17;;
49650;SDS011;35547;55.676;37.492;2022-09-17T03:26:28;5.50;;;3.60;;
49650;SDS011;35547;55.676;37.492;2022-09-17T03:27:28;5.33;;;3.73;;
49650;SDS011;35547;55.676;37.492;2022-09-17T03:28:29;5.27;;;3.60;;
49650;SDS011;35547;55.676;37.492;2022-09-17T03:29:29;9.03;;;3.90;;
49650;SDS011;35547;55.676;37.492;2022-09-17T03:30:30;7.50;;;4.07;;
49650;SDS011;35547;55.676;37.492;2022-09-17T03:31:30;8.63;;;4.20;;
49650;SDS011;35547;55.676;37.492;2022-09-17T03:32:31;9.10;;;4.47;;
49650;SDS011;35547;55.676;37.492;2022-09-17T03:33:32;6.05;;;3.78;;
49650;SDS011;35547;55.676;37.492;2022-09-17T03:34:33;8.13;;;3.83;;
49650;SDS011;35547;55.676;37.492;2022-09-17T03:35:33;5.10;;;3.90;;
49650;SDS011;35547;55.676;37.492;2022-09-17T03:36:34;6.23;;;3.97;;
49650;SDS011;35547;55.676;37.492;2022-09-17T03:37:34;6.87;;;3.90;;
49650;SDS011;35547;55.676;37.492;2022-09-17T03:38:35;6.50;;;3.57;;
49650;SDS011;35547;55.676;37.492;2022-09-17T03:39:37;8.90;;;3.88;;
49650;SDS011;35547;55.676;37.492;2022-09-17T03:40:38;6.20;;;3.60;;
49650;SDS011;35547;55.676;37.492;2022-09-17T03:41:39;4.50;;;3.30;;
49650;SDS011;35547;55.676;37.492;2022-09-17T03:42:40;14.00;;;4.33;;
49650;SDS011;35547;55.676;37.492;2022-09-17T03:43:40;7.73;;;3.03;;
49650;SDS011;35547;55.676;37.492;2022-09-17T03:44:41;8.03;;;3.40;;
49650;SDS011;35547;55.676;37.492;2022-09-17T03:45:41;5.37;;;3.80;;
49650;SDS011;35547;55.676;37.492;2022-09-17T03:46:42;5.05;;;3.58;;
49650;SDS011;35547;55.676;37.492;2022-09-17T03:47:43;8.40;;;3.87;;
49650;SDS011;35547;55.676;37.492;2022-09-17T03:48:43;8.30;;;4.13;;
49650;SDS011;35547;55.676;37.492;2022-09-17T03:49:44;6.93;;;3.73;;
49650;SDS011;35547;55.676;37.492;2022-09-17T03:50:44;5.87;;;3.83;;
49650;SDS011;35547;55.676;37.492;2022-09-17T03:51:45;4.47;;;4.03;;
49650;SDS011;35547;55.676;37.492;2022-09-17T03:52:46;4.90;;;3.57;;
49650;SDS011;35547;55.676;37.492;2022-09-17T03:53:46;7.20;;;3.70;;
49650;SDS011;35547;55.676;37.492;2022-09-17T03:54:47;5.17;;;3.87;;
49650;SDS011;35547;55.676;37.492;2022-09-17T03:55:48;4.75;;;3.90;;
49650;SDS011;35547;55.676;37.492;2022-09-17T03:56:49;6.88;;;3.72;;
49650;SDS011;35547;55.676;37.492;2022-09-17T03:57:49;11.13;;;3.57;;
49650;SDS011;35547;55.676;37.492;2022-09-17T03:58:50;6.13;;;3.50;;
49650;SDS011;35547;55.676;37.492;2022-09-17T03:59:50;6.03;;;3.40;;
49650;SDS011;35547;55.676;37.492;2022-09-17T04:00:51;5.97;;;3.60;;
49650;SDS011;35547;55.676;37.492;2022-09-17T04:01:53;6.10;;;4.07;;
49650;SDS011;35547;55.676;37.492;2022-09-17T04:02:54;10.77;;;4.17;;
49650;SDS011;35547;55.676;37.492;2022-09-17T04:03:54;6.73;;;3.57;;
49650;SDS011;35547;55.676;37.492;2022-09-17T04:04:55;6.80;;;3.53;;
49650;SDS011;35547;55.676;37.492;2022-09-17T04:05:56;11.50;;;4.27;;
49650;SDS011;35547;55.676;37.492;2022-09-17T04:06:56;8.27;;;3.80;;
49650;SDS011;35547;55.676;37.492;2022-09-17T04:07:57;6.47;;;3.37;;
49650;SDS011;35547;55.676;37.492;2022-09-17T04:08:57;9.03;;;4.13;;
49650;SDS011;35547;55.676;37.492;2022-09-17T04:10:00;5.18;;;3.50;;
49650;SDS011;35547;55.676;37.492;2022-09-17T04:11:00;5.10;;;3.37;;
49650;SDS011;35547;55.676;37.492;2022-09-17T04:12:01;7.35;;;3.92;;
49650;SDS011;35547;55.676;37.492;2022-09-17T04:13:02;9.02;;;4.18;;
49650;SDS011;35547;55.676;37.492;2022-09-17T04:14:03;8.63;;;4.70;;
49650;SDS011;35547;55.676;37.492;2022-09-17T04:15:04;6.20;;;3.60;;
49650;SDS011;35547;55.676;37.492;2022-09-17T04:16:05;11.75;;;4.20;;
49650;SDS011;35547;55.676;37.492;2022-09-17T04:17:06;6.13;;;3.80;;
49650;SDS011;35547;55.676;37.492;2022-09-17T04:18:07;7.50;;;3.93;;
49650;SDS011;35547;55.676;37.492;2022-09-17T04:19:07;6.03;;;4.00;;
49650;SDS011;35547;55.676;37.492;2022-09-17T04:20:08;10.13;;;3.43;;
49650;SDS011;35547;55.676;37.492;2022-09-17T04:21:09;6.25;;;3.85;;
49650;SDS011;35547;55.676;37.492;2022-09-17T04:22:09;5.23;;;4.03;;
49650;SDS011;35547;55.676;37.492;2022-09-17T04:23:10;7.70;;;4.50;;
49650;SDS011;35547;55.676;37.492;2022-09-17T04:24:12;9.98;;;4.35;;
49650;SDS011;35547;55.676;37.492;2022-09-17T04:25:12;4.20;;;3.80;;
49650;SDS011;35547;55.676;37.492;2022-09-17T04:26:13;4.13;;;3.70;;
49650;SDS011;35547;55.676;37.492;2022-09-17T04:27:13;8.33;;;3.90;;
49650;SDS011;35547;55.676;37.492;2022-09-17T04:28:14;9.60;;;3.83;;
49650;SDS011;35547;55.676;37.492;2022-09-17T04:29:15;12.70;;;4.13;;
49650;SDS011;35547;55.676;37.492;2022-09-17T04:30:15;7.83;;;3.73;;
49650;SDS011;35547;55.676;37.492;2022-09-17T04:31:16;7.78;;;4.30;;
49650;SDS011;35547;55.676;37.492;2022-09-17T04:32:17;5.43;;;3.67;;
49650;SDS011;35547;55.676;37.492;2022-09-17T04:33:17;8.40;;;4.40;;
49650;SDS011;35547;55.676;37.492;2022-09-17T04:34:18;8.33;;;4.60;;
49650;SDS011;35547;55.676;37.492;2022-09-17T04:35:18;7.93;;;6.60;;
49650;SDS011;35547;55.676;37.492;2022-09-17T04:36:19;8.73;;;4.40;;
49650;SDS011;35547;55.676;37.492;2022-09-17T04:37:19;5.63;;;4.53;;
49650;SDS011;35547;55.676;37.492;2022-09-17T04:38:20;9.00;;;4.82;;
49650;SDS011;35547;55.676;37.492;2022-09-17T04:39:21;6.33;;;4.60;;
49650;SDS011;35547;55.676;37.492;2022-09-17T04:40:22;7.37;;;4.20;;
49650;SDS011;35547;55.676;37.492;2022-09-17T04:41:24;10.90;;;4.20;;
49650;SDS011;35547;55.676;37.492;2022-09-17T04:42:25;5.80;;;4.07;;
49650;SDS011;35547;55.676;37.492;2022-09-17T04:43:25;9.77;;;4.13;;
49650;SDS011;35547;55.676;37.492;2022-09-17T04:44:26;7.77;;;4.30;;
49650;SDS011;35547;55.676;37.492;2022-09-17T04:45:26;6.47;;;3.80;;
49650;SDS011;35547;55.676;37.492;2022-09-17T04:47:29;6.75;;;3.90;;
49650;SDS011;35547;55.676;37.492;2022-09-17T04:48:29;12.33;;;4.13;;
49650;SDS011;35547;55.676;37.492;2022-09-17T04:49:30;8.53;;;3.80;;
49650;SDS011;35547;55.676;37.492;2022-09-17T04:50:31;6.15;;;4.07;;
49650;SDS011;35547;55.676;37.492;2022-09-17T04:51:32;6.83;;;3.73;;
49650;SDS011;35547;55.676;37.492;2022-09-17T04:52:32;6.43;;;3.67;;
49650;SDS011;35547;55.676;37.492;2022-09-17T04:53:33;7.93;;;4.00;;
49650;SDS011;35547;55.676;37.492;2022-09-17T04:54:34;6.60;;;4.13;;
49650;SDS011;35547;55.676;37.492;2022-09-17T04:55:34;7.10;;;3.80;;
49650;SDS011;35547;55.676;37.492;2022-09-17T04:56:35;7.50;;;4.17;;
49650;SDS011;35547;55.676;37.492;2022-09-17T04:57:35;8.00;;;3.60;;
49650;SDS011;35547;55.676;37.492;2022-09-17T04:58:36;9.40;;;3.60;;
49650;SDS011;35547;55.676;37.492;2022-09-17T04:59:36;11.00;;;3.73;;
49650;SDS011;35547;55.676;37.492;2022-09-17T05:00:37;8.97;;;3.70;;
49650;SDS011;35547;55.676;37.492;2022-09-17T05:01:38;6.57;;;3.40;;
49650;SDS011;35547;55.676;37.492;2022-09-17T05:02:38;10.43;;;4.03;;
49650;SDS011;35547;55.676;37.492;2022-09-17T05:03:39;7.50;;;3.30;;
49650;SDS011;35547;55.676;37.492;2022-09-17T05:04:40;7.77;;;3.53;;
49650;SDS011;35547;55.676;37.492;2022-09-17T05:05:40;9.33;;;3.43;;
49650;SDS011;35547;55.676;37.492;2022-09-17T05:06:41;6.20;;;3.20;;
49650;SDS011;35547;55.676;37.492;2022-09-17T05:07:41;9.77;;;3.40;;
49650;SDS011;35547;55.676;37.492;2022-09-17T05:08:42;4.97;;;3.23;;
49650;SDS011;35547;55.676;37.492;2022-09-17T05:09:42;4.50;;;3.03;;
49650;SDS011;35547;55.676;37.492;2022-09-17T05:10:43;8.30;;;3.37;;
49650;SDS011;35547;55.676;37.492;2022-09-17T05:11:44;4.30;;;2.97;;
49650;SDS011;35547;55.676;37.492;2022-09-17T05:12:48;3.85;;;3.22;;
49650;SDS011;35547;55.676;37.492;2022-09-17T05:13:50;4.53;;;3.33;;
49650;SDS011;35547;55.676;37.492;2022-09-17T05:14:50;7.27;;;3.30;;
49650;SDS011;35547;55.676;37.492;2022-09-17T05:15:52;4.80;;;3.13;;
49650;SDS011;35547;55.676;37.492;2022-09-17T05:16:55;5.13;;;3.05;;
49650;SDS011;35547;55.676;37.492;2022-09-17T05:17:55;7.60;;;2.90;;
49650;SDS011;35547;55.676;37.492;2022-09-17T05:18:56;7.37;;;3.10;;
49650;SDS011;35547;55.676;37.492;2022-09-17T05:19:57;8.70;;;3.50;;
49650;SDS011;35547;55.676;37.492;2022-09-17T05:20:57;4.93;;;3.23;;
49650;SDS011;35547;55.676;37.492;2022-09-17T05:21:58;5.37;;;3.20;;
49650;SDS011;35547;55.676;37.492;2022-09-17T05:22:58;11.17;;;3.20;;
49650;SDS011;35547;55.676;37.492;2022-09-17T05:23:59;4.90;;;3.30;;
49650;SDS011;35547;55.676;37.492;2022-09-17T05:25:00;8.05;;;3.30;;
49650;SDS011;35547;55.676;37.492;2022-09-17T05:26:01;8.63;;;3.40;;
49650;SDS011;35547;55.676;37.492;2022-09-17T05:27:01;5.63;;;3.37;;
49650;SDS011;35547;55.676;37.492;2022-09-17T05:28:02;6.70;;;3.60;;
49650;SDS011;35547;55.676;37.492;2022-09-17T05:29:03;3.97;;;3.03;;
49650;SDS011;35547;55.676;37.492;2022-09-17T05:30:04;5.90;;;2.77;;
49650;SDS011;35547;55.676;37.492;2022-09-17T05:31:05;4.68;;;3.28;;
49650;SDS011;35547;55.676;37.492;2022-09-17T05:32:06;6.90;;;3.53;;
49650;SDS011;35547;55.676;37.492;2022-09-17T05:33:06;12.63;;;4.33;;
49650;SDS011;35547;55.676;37.492;2022-09-17T05:34:07;11.67;;;4.00;;
49650;SDS011;35547;55.676;37.492;2022-09-17T05:35:08;6.50;;;3.57;;
49650;SDS011;35547;55.676;37.492;2022-09-17T05:36:09;7.75;;;3.92;;
49650;SDS011;35547;55.676;37.492;2022-09-17T05:37:10;6.10;;;3.20;;
49650;SDS011;35547;55.676;37.492;2022-09-17T05:38:10;4.90;;;3.60;;
49650;SDS011;35547;55.676;37.492;2022-09-17T05:39:11;8.17;;;3.20;;
49650;SDS011;35547;55.676;37.492;2022-09-17T05:40:11;8.20;;;3.57;;
49650;SDS011;35547;55.676;37.492;2022-09-17T05:41:12;5.60;;;3.30;;
49650;SDS011;35547;55.676;37.492;2022-09-17T05:42:12;7.30;;;3.47;;
49650;SDS011;35547;55.676;37.492;2022-09-17T05:43:13;11.57;;;3.20;;
49650;SDS011;35547;55.676;37.492;2022-09-17T05:44:14;10.60;;;3.28;;
49650;SDS011;35547;55.676;37.492;2022-09-17T05:45:15;9.03;;;3.53;;
49650;SDS011;35547;55.676;37.492;2022-09-17T05:46:15;6.57;;;3.40;;
49650;SDS011;35547;55.676;37.492;2022-09-17T05:47:16;8.00;;;3.20;;
49650;SDS011;35547;55.676;37.492;2022-09-17T05:48:16;7.37;;;3.70;;
49650;SDS011;35547;55.676;37.492;2022-09-17T05:49:17;4.87;;;3.07;;
49650;SDS011;35547;55.676;37.492;2022-09-17T05:50:17;5.80;;;3.30;;
49650;SDS011;35547;55.676;37.492;2022-09-17T05:51:18;5.50;;;2.80;;
49650;SDS011;35547;55.676;37.492;2022-09-17T05:52:18;8.60;;;3.73;;
49650;SDS011;35547;55.676;37.492;2022-09-17T05:53:19;7.27;;;3.27;;
49650;SDS011;35547;55.676;37.492;2022-09-17T05:54:20;6.67;;;3.60;;
49650;SDS011;35547;55.676;37.492;2022-09-17T05:55:21;5.77;;;3.07;;
49650;SDS011;35547;55.676;37.492;2022-09-17T05:56:23;7.10;;;2.90;;
49650;SDS011;35547;55.676;37.492;2022-09-17T05:57:23;6.53;;;3.53;;
49650;SDS011;35547;55.676;37.492;2022-09-17T05:58:24;6.50;;;3.80;;
49650;SDS011;35547;55.676;37.492;2022-09-17T05:59:26;12.27;;;3.83;;
49650;SDS011;35547;55.676;37.492;2022-09-17T06:00:27;10.43;;;2.92;;
49650;SDS011;35547;55.676;37.492;2022-09-17T06:01:28;6.95;;;3.00;;
49650;SDS011;35547;55.676;37.492;2022-09-17T06:02:29;7.60;;;3.03;;
49650;SDS011;35547;55.676;37.492;2022-09-17T06:03:29;10.73;;;3.33;;
49650;SDS011;35547;55.676;37.492;2022-09-17T06:04:30;8.47;;;2.90;;
49650;SDS011;35547;55.676;37.492;2022-09-17T06:05:30;11.17;;;3.20;;
49650;SDS011;35547;55.676;37.492;2022-09-17T06:06:31;7.43;;;2.70;;
49650;SDS011;35547;55.676;37.492;2022-09-17T06:07:33;8.73;;;2.60;;
49650;SDS011;35547;55.676;37.492;2022-09-17T06:08:35;6.50;;;2.72;;
49650;SDS011;35547;55.676;37.492;2022-09-17T06:09:36;7.70;;;3.13;;
49650;SDS011;35547;55.676;37.492;2022-09-17T06:10:37;12.75;;;3.33;;
49650;SDS011;35547;55.676;37.492;2022-09-17T06:11:38;12.83;;;3.23;;
49650;SDS011;35547;55.676;37.492;2022-09-17T06:12:38;5.23;;;2.53;;
49650;SDS011;35547;55.676;37.492;2022-09-17T06:13:39;9.73;;;3.20;;
49650;SDS011;35547;55.676;37.492;2022-09-17T06:14:42;5.93;;;2.95;;
49650;SDS011;35547;55.676;37.492;2022-09-17T06:15:47;7.63;;;2.80;;
49650;SDS011;35547;55.676;37.492;2022-09-17T06:16:52;11.02;;;3.15;;
49650;SDS011;35547;55.676;37.492;2022-09-17T06:17:53;10.97;;;3.00;;
49650;SDS011;35547;55.676;37.492;2022-09-17T06:18:54;6.03;;;2.80;;
49650;SDS011;35547;55.676;37.492;2022-09-17T06:19:54;6.18;;;3.05;;
49650;SDS011;35547;55.676;37.492;2022-09-17T06:20:56;7.73;;;2.80;;
49650;SDS011;35547;55.676;37.492;2022-09-17T06:21:56;11.68;;;3.58;;
49650;SDS011;35547;55.676;37.492;2022-09-17T06:22:57;6.67;;;3.03;;
49650;SDS011;35547;55.676;37.492;2022-09-17T06:23:59;9.10;;;3.17;;
49650;SDS011;35547;55.676;37.492;2022-09-17T06:25:00;5.60;;;2.60;;
49650;SDS011;35547;55.676;37.492;2022-09-17T06:26:02;6.13;;;3.17;;
49650;SDS011;35547;55.676;37.492;2022-09-17T06:27:03;13.15;;;3.40;;
49650;SDS011;35547;55.676;37.492;2022-09-17T06:28:04;15.07;;;2.83;;
49650;SDS011;35547;55.676;37.492;2022-09-17T06:29:05;7.00;;;2.93;;
49650;SDS011;35547;55.676;37.492;2022-09-17T06:30:05;5.77;;;2.93;;
49650;SDS011;35547;55.676;37.492;2022-09-17T06:31:07;7.32;;;2.88;;
49650;SDS011;35547;55.676;37.492;2022-09-17T06:32:09;9.95;;;2.63;;
49650;SDS011;35547;55.676;37.492;2022-09-17T06:33:14;10.75;;;2.92;;
49650;SDS011;35547;55.676;37.492;2022-09-17T06:34:15;9.53;;;2.57;;
49650;SDS011;35547;55.676;37.492;2022-09-17T06:35:16;5.95;;;2.42;;
49650;SDS011;35547;55.676;37.492;2022-09-17T06:36:17;9.47;;;2.60;;
49650;SDS011;35547;55.676;37.492;2022-09-17T06:37:17;9.00;;;2.77;;
49650;SDS011;35547;55.676;37.492;2022-09-17T06:38:18;8.47;;;2.67;;
49650;SDS011;35547;55.676;37.492;2022-09-17T06:39:18;15.27;;;2.97;;
49650;SDS011;35547;55.676;37.492;2022-09-17T06:40:19;9.23;;;2.53;;
49650;SDS011;35547;55.676;37.492;2022-09-17T06:41:22;7.90;;;2.20;;
49650;SDS011;35547;55.676;37.492;2022-09-17T06:42:22;8.90;;;2.50;;
49650;SDS011;35547;55.676;37.492;2022-09-17T06:43:23;6.97;;;2.30;;
49650;SDS011;35547;55.676;37.492;2022-09-17T06:44:24;13.32;;;2.22;;
49650;SDS011;35547;55.676;37.492;2022-09-17T06:45:25;12.60;;;2.43;;
49650;SDS011;35547;55.676;37.492;2022-09-17T06:46:26;9.02;;;2.42;;
49650;SDS011;35547;55.676;37.492;2022-09-17T06:47:26;10.37;;;2.33;;
49650;SDS011;35547;55.676;37.492;2022-09-17T06:48:28;8.83;;;2.13;;
49650;SDS011;35547;55.676;37.492;2022-09-17T06:49:29;7.82;;;1.77;;
49650;SDS011;35547;55.676;37.492;2022-09-17T06:50:30;9.55;;;1.95;;
49650;SDS011;35547;55.676;37.492;2022-09-17T06:51:33;6.82;;;2.28;;
49650;SDS011;35547;55.676;37.492;2022-09-17T06:52:34;7.93;;;2.50;;
49650;SDS011;35547;55.676;37.492;2022-09-17T06:53:34;8.97;;;2.23;;
49650;SDS011;35547;55.676;37.492;2022-09-17T06:54:36;11.73;;;2.65;;
49650;SDS011;35547;55.676;37.492;2022-09-17T06:55:37;9.60;;;1.93;;
49650;SDS011;35547;55.676;37.492;2022-09-17T06:56:37;7.30;;;2.07;;
49650;SDS011;35547;55.676;37.492;2022-09-17T06:57:38;16.50;;;2.50;;
49650;SDS011;35547;55.676;37.492;2022-09-17T06:58:38;8.83;;;2.20;;
49650;SDS011;35547;55.676;37.492;2022-09-17T06:59:42;10.23;;;2.47;;
49650;SDS011;35547;55.676;37.492;2022-09-17T07:00:43;7.77;;;2.30;;